Time;durP1;ratioP1;P1;durP2;ratioP2;P2;SDS_P1;SDS_P2;PMS_P1;PMS_P2;Temp;Humidity;BMP_temperature;BMP_pressure;BME280_temperature;BME280_humidity;BME280_pressure;Samples;Min_cycle;Max_cycle;Signal;HPM_P1;HPM_P2
2023/07/03 00:00:42;;;;;;;3.22;2.53;;;;;;;;;;5979102;29;20256;-68
2023/07/03 00:03:51;;;;;;;2.80;2.60;;;;;;;;;;5979522;29;20260;-70
2023/07/03 00:06:56;;;;;;;3.83;2.75;;;;;;;;;;5984579;29;20425;-69
2023/07/03 00:10:01;;;;;;;6.85;2.35;;;;;;;;;;6001643;29;20277;-70
2023/07/03 00:13:06;;;;;;;3.47;2.80;;;;;;;;;;6001654;29;20248;-70
2023/07/03 00:16:10;;;;;;;2.70;2.50;;;;;;;;;;6001668;29;20299;-69
2023/07/03 00:19:16;;;;;;;2.85;2.65;;;;;;;;;;6001981;29;20426;-70
2023/07/03 00:22:21;;;;;;;6.13;2.70;;;;;;;;;;6001417;29;20243;-69
2023/07/03 00:25:26;;;;;;;2.33;2.20;;;;;;;;;;6001741;29;20243;-69
2023/07/03 00:28:30;;;;;;;5.70;2.50;;;;;;;;;;6001741;29;20252;-70
2023/07/03 00:31:35;;;;;;;3.85;2.53;;;;;;;;;;6001265;29;20267;-70
2023/07/03 00:34:41;;;;;;;4.30;2.90;;;;;;;;;;5985128;29;20279;-71
2023/07/03 00:37:46;;;;;;;2.88;2.67;;;;;;;;;;5984886;29;20283;-70
2023/07/03 00:40:50;;;;;;;2.80;2.60;;;;;;;;;;5984580;29;20288;-70
2023/07/03 00:43:55;;;;;;;3.50;2.70;;;;;;;;;;5984139;29;20450;-69
2023/07/03 00:47:00;;;;;;;2.67;2.47;;;;;;;;;;5984570;29;20287;-69
2023/07/03 00:50:07;;;;;;;7.50;2.65;;;;;;;;;;6000559;29;20275;-69
2023/07/03 00:53:12;;;;;;;6.40;2.35;;;;;;;;;;6000871;29;20529;-70
2023/07/03 00:56:19;;;;;;;3.90;2.80;;;;;;;;;;5984743;29;20536;-69
2023/07/03 00:59:24;;;;;;;3.13;2.80;;;;;;;;;;6001160;29;20244;-70
2023/07/03 01:02:35;;;;;;;4.18;3.15;;;;;;;;;;6000825;29;20244;-69
2023/07/03 01:05:46;;;;;;;3.88;2.63;;;;;;;;;;6000963;29;20240;-70
2023/07/03 01:08:54;;;;;;;4.15;2.60;;;;;;;;;;5980622;29;20252;-70
2023/07/03 01:11:59;;;;;;;4.50;2.53;;;;;;;;;;5978031;29;20566;-69
2023/07/03 01:15:09;;;;;;;3.47;3.17;;;;;;;;;;5961090;29;20280;-70
2023/07/03 01:18:14;;;;;;;5.53;2.30;;;;;;;;;;5962061;29;20431;-71
2023/07/03 01:21:23;;;;;;;2.17;2.00;;;;;;;;;;5962255;29;20470;-68
2023/07/03 01:24:34;;;;;;;3.03;2.47;;;;;;;;;;5977866;29;20252;-70
2023/07/03 01:27:41;;;;;;;2.70;2.40;;;;;;;;;;5961902;29;20272;-69
2023/07/03 01:30:46;;;;;;;6.50;2.28;;;;;;;;;;5977737;29;20289;-69
2023/07/03 01:33:51;;;;;;;5.55;2.30;;;;;;;;;;5977825;29;20526;-69
2023/07/03 01:36:58;;;;;;;3.65;2.03;;;;;;;;;;5962092;29;20529;-69
2023/07/03 01:40:06;;;;;;;2.85;2.65;;;;;;;;;;5977513;29;20248;-69
2023/07/03 01:43:11;;;;;;;3.30;3.00;;;;;;;;;;5977901;29;20415;-69
2023/07/03 01:46:17;;;;;;;2.80;2.53;;;;;;;;;;5982417;29;20497;-70
2023/07/03 01:49:22;;;;;;;3.03;2.70;;;;;;;;;;5966298;29;20276;-68
2023/07/03 01:52:30;;;;;;;3.20;2.72;;;;;;;;;;5966676;29;20295;-69
2023/07/03 01:55:42;;;;;;;2.97;2.78;;;;;;;;;;5981890;29;20249;-69
2023/07/03 01:58:49;;;;;;;5.63;2.53;;;;;;;;;;5981836;29;20256;-69
2023/07/03 02:01:59;;;;;;;5.18;2.45;;;;;;;;;;5981678;29;20256;-69
2023/07/03 02:05:07;;;;;;;2.83;2.60;;;;;;;;;;5982218;29;20261;-69
2023/07/03 02:08:12;;;;;;;3.50;2.50;;;;;;;;;;5996952;29;20259;-69
2023/07/03 02:11:20;;;;;;;2.40;2.28;;;;;;;;;;5988028;29;20299;-68
2023/07/03 02:14:29;;;;;;;5.38;3.10;;;;;;;;;;5987778;29;20307;-69
2023/07/03 02:17:34;;;;;;;3.17;2.55;;;;;;;;;;5987344;29;20302;-69
2023/07/03 02:20:39;;;;;;;6.78;2.92;;;;;;;;;;6004021;29;20256;-70
2023/07/03 02:23:44;;;;;;;6.32;2.90;;;;;;;;;;6004241;29;20244;-71
2023/07/03 02:26:52;;;;;;;4.40;2.80;;;;;;;;;;5987651;29;20279;-69
2023/07/03 02:29:56;;;;;;;5.47;2.42;;;;;;;;;;6003473;29;20415;-70
2023/07/03 02:33:01;;;;;;;3.20;2.60;;;;;;;;;;5987201;29;20307;-69
2023/07/03 02:36:07;;;;;;;6.50;2.70;;;;;;;;;;5980349;29;20279;-69
2023/07/03 02:39:12;;;;;;;3.10;2.55;;;;;;;;;;5987330;29;20336;-70
2023/07/03 02:42:18;;;;;;;5.90;2.95;;;;;;;;;;6003906;29;20247;-70
2023/07/03 02:45:23;;;;;;;6.97;2.47;;;;;;;;;;6002884;29;20291;-69
2023/07/03 02:48:27;;;;;;;4.85;2.70;;;;;;;;;;5987206;29;20283;-69
2023/07/03 02:51:32;;;;;;;2.47;2.33;;;;;;;;;;5987190;29;20299;-70
2023/07/03 02:54:39;;;;;;;3.15;2.70;;;;;;;;;;5986920;29;20275;-69
2023/07/03 02:57:46;;;;;;;4.43;2.63;;;;;;;;;;5986951;29;20532;-69
2023/07/03 03:00:51;;;;;;;2.30;2.20;;;;;;;;;;6002964;29;20248;-70
2023/07/03 03:03:58;;;;;;;3.78;2.30;;;;;;;;;;5986570;29;20279;-69
2023/07/03 03:07:03;;;;;;;5.47;2.45;;;;;;;;;;5979769;29;20268;-70
2023/07/03 03:10:09;;;;;;;3.28;2.83;;;;;;;;;;5980518;29;20248;-70
2023/07/03 03:13:15;;;;;;;2.97;2.47;;;;;;;;;;5980227;29;20280;-70
2023/07/03 03:16:19;;;;;;;4.15;2.63;;;;;;;;;;5963340;29;20324;-70
2023/07/03 03:19:24;;;;;;;6.10;2.55;;;;;;;;;;5979215;29;20253;-70
2023/07/03 03:22:29;;;;;;;2.58;2.38;;;;;;;;;;5963188;29;20292;-70
2023/07/03 03:25:34;;;;;;;2.17;2.08;;;;;;;;;;5979015;29;20248;-69
2023/07/03 03:28:40;;;;;;;2.88;2.30;;;;;;;;;;5979192;29;20260;-70
2023/07/03 03:31:45;;;;;;;2.10;2.00;;;;;;;;;;5962719;29;20303;-69
2023/07/03 03:34:50;;;;;;;3.70;2.17;;;;;;;;;;5962536;29;20283;-69
2023/07/03 03:37:54;;;;;;;2.78;2.50;;;;;;;;;;5978764;29;20253;-70
2023/07/03 03:41:01;;;;;;;4.00;2.10;;;;;;;;;;5962343;29;20276;-70
2023/07/03 03:44:11;;;;;;;5.10;2.10;;;;;;;;;;5962223;29;20284;-68
2023/07/03 03:47:15;;;;;;;2.80;1.90;;;;;;;;;;5962151;29;20564;-70
2023/07/03 03:50:20;;;;;;;3.42;2.40;;;;;;;;;;5962428;29;20276;-70
2023/07/03 03:53:25;;;;;;;3.58;1.92;;;;;;;;;;5961802;29;20309;-70
2023/07/03 03:56:30;;;;;;;3.58;1.90;;;;;;;;;;5978175;29;20434;-70
2023/07/03 03:59:35;;;;;;;2.03;2.00;;;;;;;;;;5962309;29;20276;-70
2023/07/03 04:02:41;;;;;;;1.88;1.83;;;;;;;;;;5962264;29;20561;-71
2023/07/03 04:05:46;;;;;;;2.95;1.80;;;;;;;;;;5978435;29;20248;-70
2023/07/03 04:08:51;;;;;;;1.95;1.83;;;;;;;;;;5998406;29;20252;-69
2023/07/03 04:11:56;;;;;;;3.53;2.00;;;;;;;;;;6001312;29;20430;-69
2023/07/03 04:15:03;;;;;;;2.74;2.02;;;;;;;;;;5960540;29;1480294;-69
2023/07/03 04:18:07;;;;;;;2.35;1.63;;;;;;;;;;6000232;29;20440;-69
2023/07/03 04:21:12;;;;;;;1.58;1.55;;;;;;;;;;6001543;29;20410;-69
2023/07/03 04:24:16;;;;;;;3.03;1.70;;;;;;;;;;6001102;29;20259;-68
2023/07/03 04:27:21;;;;;;;3.13;1.80;;;;;;;;;;6000473;29;20251;-70
2023/07/03 04:30:27;;;;;;;2.33;1.98;;;;;;;;;;6000850;29;20248;-69
2023/07/03 04:33:32;;;;;;;2.95;1.77;;;;;;;;;;6000514;29;20267;-69
2023/07/03 04:36:36;;;;;;;3.03;1.80;;;;;;;;;;6000584;29;20244;-69
2023/07/03 04:39:41;;;;;;;4.03;1.60;;;;;;;;;;6000793;29;20248;-69
2023/07/03 04:42:45;;;;;;;3.25;1.67;;;;;;;;;;6000007;29;20276;-70
2023/07/03 04:45:55;;;;;;;3.67;1.65;;;;;;;;;;6000436;29;20244;-69
2023/07/03 04:49:04;;;;;;;2.58;1.58;;;;;;;;;;6000450;29;20248;-69
2023/07/03 04:52:09;;;;;;;2.15;1.70;;;;;;;;;;5993283;29;20279;-69
2023/07/03 04:55:14;;;;;;;2.67;1.73;;;;;;;;;;6000090;29;20243;-69
2023/07/03 04:58:18;;;;;;;3.25;2.60;;;;;;;;;;6000393;29;20252;-68
2023/07/03 05:01:25;;;;;;;2.78;1.63;;;;;;;;;;6000136;29;20248;-70
2023/07/03 05:04:29;;;;;;;2.05;1.70;;;;;;;;;;6000384;29;20268;-69
2023/07/03 05:07:34;;;;;;;1.60;1.50;;;;;;;;;;5989438;29;20260;-69
2023/07/03 05:10:39;;;;;;;2.08;1.65;;;;;;;;;;5977196;29;20248;-68
2023/07/03 05:13:43;;;;;;;3.03;2.00;;;;;;;;;;5977403;29;20281;-69
2023/07/03 05:16:49;;;;;;;1.95;1.65;;;;;;;;;;5977258;29;20288;-69
2023/07/03 05:19:54;;;;;;;1.75;1.55;;;;;;;;;;5976370;29;20552;-69
2023/07/03 05:22:59;;;;;;;2.10;1.90;;;;;;;;;;5977350;29;20281;-70
2023/07/03 05:26:03;;;;;;;2.63;1.80;;;;;;;;;;5976927;29;20261;-69
2023/07/03 05:29:08;;;;;;;1.40;1.40;;;;;;;;;;5977149;29;20243;-69
2023/07/03 05:32:14;;;;;;;2.80;1.90;;;;;;;;;;5977053;29;20253;-69
2023/07/03 05:35:18;;;;;;;3.80;1.70;;;;;;;;;;5977406;29;20245;-69
2023/07/03 05:38:23;;;;;;;2.08;1.85;;;;;;;;;;5977114;29;20340;-68
2023/07/03 05:41:28;;;;;;;2.10;2.00;;;;;;;;;;5977288;29;20244;-68
2023/07/03 05:44:32;;;;;;;3.15;2.40;;;;;;;;;;5977266;29;20253;-69
2023/07/03 05:47:39;;;;;;;2.58;1.95;;;;;;;;;;5960324;29;20280;-69
2023/07/03 05:50:43;;;;;;;2.90;1.77;;;;;;;;;;5976655;29;20249;-68
2023/07/03 05:53:48;;;;;;;1.92;1.80;;;;;;;;;;5976693;29;20268;-71
2023/07/03 05:56:59;;;;;;;4.15;1.50;;;;;;;;;;5976753;29;20260;-69
2023/07/03 06:00:08;;;;;;;2.50;1.70;;;;;;;;;;5976921;29;20240;-69
2023/07/03 06:03:18;;;;;;;2.20;1.88;;;;;;;;;;5984255;29;20248;-70
2023/07/03 06:06:24;;;;;;;2.13;1.90;;;;;;;;;;5978853;29;20245;-69
2023/07/03 06:09:29;;;;;;;2.15;2.05;;;;;;;;;;5999528;29;20540;-69
2023/07/03 06:12:34;;;;;;;2.72;1.83;;;;;;;;;;5983424;29;20279;-70
2023/07/03 06:15:38;;;;;;;2.85;2.25;;;;;;;;;;5999263;29;20303;-68
2023/07/03 06:18:47;;;;;;;2.75;1.90;;;;;;;;;;5998794;29;20264;-68
2023/07/03 06:21:52;;;;;;;4.50;1.95;;;;;;;;;;5998885;29;20248;-69
2023/07/03 06:24:56;;;;;;;2.60;1.60;;;;;;;;;;5999309;29;20271;-69
2023/07/03 06:28:01;;;;;;;3.22;1.48;;;;;;;;;;5998760;29;20248;-69
2023/07/03 06:31:06;;;;;;;2.50;1.70;;;;;;;;;;6001352;29;20445;-69
2023/07/03 06:34:11;;;;;;;1.98;1.60;;;;;;;;;;6003000;29;20275;-69
2023/07/03 06:37:16;;;;;;;1.55;1.55;;;;;;;;;;5986556;29;20275;-69
2023/07/03 06:40:21;;;;;;;1.52;1.40;;;;;;;;;;6002508;29;20252;-69
2023/07/03 06:43:25;;;;;;;8.73;2.00;;;;;;;;;;6002891;29;20247;-69
2023/07/03 06:46:30;;;;;;;1.85;1.50;;;;;;;;;;5987001;29;20367;-69
2023/07/03 06:49:37;;;;;;;2.38;1.63;;;;;;;;;;6002896;29;20244;-68
2023/07/03 06:52:43;;;;;;;2.58;1.67;;;;;;;;;;6003711;29;20255;-70
2023/07/03 06:55:47;;;;;;;2.30;1.48;;;;;;;;;;6002158;29;20267;-69
2023/07/03 06:58:52;;;;;;;2.25;1.52;;;;;;;;;;6002240;29;20247;-69
2023/07/03 07:01:57;;;;;;;1.77;1.67;;;;;;;;;;6002679;29;20252;-69
2023/07/03 07:05:03;;;;;;;3.70;1.40;;;;;;;;;;6002987;29;20297;-72
2023/07/03 07:08:08;;;;;;;2.28;1.33;;;;;;;;;;5987911;29;20248;-69
2023/07/03 07:11:14;;;;;;;1.92;1.77;;;;;;;;;;5980740;29;20534;-70
2023/07/03 07:14:19;;;;;;;1.50;1.40;;;;;;;;;;5980423;29;20276;-70
2023/07/03 07:17:23;;;;;;;1.80;1.40;;;;;;;;;;5980440;29;20388;-69
2023/07/03 07:20:46;;;;;;;5.10;1.80;;;;;;;;;;5980117;29;20246;-69
2023/07/03 07:23:52;;;;;;;3.47;1.50;;;;;;;;;;5979822;29;20265;-69
2023/07/03 07:26:58;;;;;;;1.27;1.27;;;;;;;;;;5979701;29;20248;-71
2023/07/03 07:30:03;;;;;;;1.40;1.35;;;;;;;;;;5979987;29;20268;-69
2023/07/03 07:33:08;;;;;;;2.97;1.73;;;;;;;;;;5979587;29;20249;-71
2023/07/03 07:36:14;;;;;;;1.50;1.50;;;;;;;;;;5979801;29;20280;-69
2023/07/03 07:39:21;;;;;;;3.55;1.40;;;;;;;;;;5979361;29;20252;-68
2023/07/03 07:42:25;;;;;;;1.30;1.30;;;;;;;;;;5978669;29;20441;-69
2023/07/03 07:45:31;;;;;;;2.55;1.30;;;;;;;;;;5979400;29;20253;-68
2023/07/03 07:48:35;;;;;;;1.67;1.42;;;;;;;;;;5979621;29;20248;-69
2023/07/03 07:51:41;;;;;;;1.45;1.45;;;;;;;;;;5979713;29;20249;-70
2023/07/03 07:54:46;;;;;;;1.75;1.33;;;;;;;;;;5978759;29;20410;-69
2023/07/03 07:57:51;;;;;;;2.60;1.60;;;;;;;;;;5978784;29;20309;-70
2023/07/03 08:00:57;;;;;;;2.17;1.30;;;;;;;;;;5978769;29;20526;-68
2023/07/03 08:04:02;;;;;;;3.20;1.40;;;;;;;;;;5979042;29;20272;-68
2023/07/03 08:07:08;;;;;;;4.20;1.50;;;;;;;;;;5985150;29;20260;-70
2023/07/03 08:10:13;;;;;;;2.08;1.50;;;;;;;;;;6000903;29;20245;-69
2023/07/03 08:13:18;;;;;;;4.53;1.60;;;;;;;;;;6000899;29;20252;-68
2023/07/03 08:16:23;;;;;;;2.15;1.60;;;;;;;;;;6000562;29;20497;-69
2023/07/03 08:19:27;;;;;;;3.45;1.58;;;;;;;;;;6000847;29;20256;-69
2023/07/03 08:22:33;;;;;;;3.60;1.70;;;;;;;;;;6000978;29;20247;-69
2023/07/03 08:25:38;;;;;;;6.53;1.88;;;;;;;;;;6000917;29;20251;-70
2023/07/03 08:28:43;;;;;;;2.88;1.63;;;;;;;;;;6000407;29;20251;-69
2023/07/03 08:31:47;;;;;;;2.13;1.90;;;;;;;;;;6000526;29;20251;-68
2023/07/03 08:34:52;;;;;;;3.67;2.15;;;;;;;;;;6000445;29;20267;-69
2023/07/03 08:38:02;;;;;;;2.85;1.77;;;;;;;;;;6000588;29;20520;-70
2023/07/03 08:41:06;;;;;;;2.88;2.15;;;;;;;;;;6000426;29;20243;-69
2023/07/03 08:44:12;;;;;;;7.95;2.25;;;;;;;;;;6000364;29;20267;-69
2023/07/03 08:47:22;;;;;;;3.20;1.85;;;;;;;;;;6000734;29;20243;-69
2023/07/03 08:50:26;;;;;;;1.92;1.83;;;;;;;;;;6001034;29;20252;-70
2023/07/03 08:53:44;;;;;;;2.53;2.33;;;;;;;;;;5983887;29;20423;-70
2023/07/03 08:56:49;;;;;;;6.18;2.28;;;;;;;;;;6000417;29;20483;-68
2023/07/03 08:59:54;;;;;;;3.17;1.83;;;;;;;;;;6000745;29;20248;-68
2023/07/03 09:03:01;;;;;;;2.65;2.25;;;;;;;;;;6000506;29;20357;-69
2023/07/03 09:06:11;;;;;;;3.13;1.90;;;;;;;;;;6000526;29;20297;-69
2023/07/03 09:09:23;;;;;;;5.38;1.65;;;;;;;;;;5977237;29;20356;-69
2023/07/03 09:12:31;;;;;;;1.80;1.38;;;;;;;;;;5977511;29;20259;-69
2023/07/03 09:15:38;;;;;;;4.03;1.70;;;;;;;;;;5978485;29;20308;-69
2023/07/03 09:18:45;;;;;;;3.10;2.00;;;;;;;;;;5977480;29;20240;-70
2023/07/03 09:21:52;;;;;;;3.45;1.50;;;;;;;;;;5977177;29;20248;-68
2023/07/03 09:25:01;;;;;;;1.80;1.45;;;;;;;;;;5977244;29;20252;-69
2023/07/03 09:28:07;;;;;;;4.40;1.90;;;;;;;;;;5977004;29;20244;-68
2023/07/03 09:31:11;;;;;;;1.70;1.58;;;;;;;;;;5978631;29;20525;-68
2023/07/03 09:34:16;;;;;;;5.05;1.92;;;;;;;;;;5976807;29;20249;-68
2023/07/03 09:37:21;;;;;;;1.90;1.80;;;;;;;;;;5977041;29;20359;-69
2023/07/03 09:40:30;;;;;;;2.20;1.88;;;;;;;;;;5976641;29;20561;-69
2023/07/03 09:43:34;;;;;;;1.70;1.70;;;;;;;;;;5977073;29;20245;-70
2023/07/03 09:46:39;;;;;;;1.75;1.65;;;;;;;;;;5976972;29;20244;-69
2023/07/03 09:49:44;;;;;;;1.58;1.48;;;;;;;;;;5990403;29;20464;-70
2023/07/03 09:52:49;;;;;;;3.58;1.65;;;;;;;;;;5976429;29;20264;-68
2023/07/03 09:56:16;;;;;;;2.65;1.70;;;;;;;;;;5976570;29;20268;-70
2023/07/03 09:59:21;;;;;;;1.90;1.70;;;;;;;;;;5976530;29;20282;-68
2023/07/03 10:02:25;;;;;;;3.22;1.40;;;;;;;;;;5976360;29;20521;-69
2023/07/03 10:05:34;;;;;;;7.20;1.58;;;;;;;;;;5978847;29;20264;-69
2023/07/03 10:08:46;;;;;;;2.92;1.70;;;;;;;;;;5999475;29;20240;-69
2023/07/03 10:11:58;;;;;;;1.45;1.30;;;;;;;;;;6002986;29;20248;-70
2023/07/03 10:15:07;;;;;;;2.50;1.40;;;;;;;;;;6002955;29;20263;-70
2023/07/03 10:18:14;;;;;;;2.35;1.30;;;;;;;;;;5980870;29;20252;-70
2023/07/03 10:21:21;;;;;;;3.03;1.65;;;;;;;;;;5980467;29;20498;-69
2023/07/03 10:24:26;;;;;;;2.45;1.20;;;;;;;;;;5980577;29;20248;-68
2023/07/03 10:27:34;;;;;;;2.92;1.50;;;;;;;;;;5980759;29;20252;-69
2023/07/03 10:30:40;;;;;;;1.60;1.20;;;;;;;;;;5980387;29;20252;-69
2023/07/03 10:33:48;;;;;;;3.03;1.60;;;;;;;;;;5980250;29;20244;-70
2023/07/03 10:36:59;;;;;;;3.17;2.00;;;;;;;;;;5993683;29;20295;-69
2023/07/03 10:40:10;;;;;;;2.47;1.40;;;;;;;;;;5979873;29;20272;-69
2023/07/03 10:43:17;;;;;;;1.73;1.58;;;;;;;;;;5979840;29;20330;-70
2023/07/03 10:46:26;;;;;;;3.78;1.40;;;;;;;;;;5980254;29;20320;-68
2023/07/03 10:49:32;;;;;;;1.95;1.23;;;;;;;;;;5980300;29;20252;-69
2023/07/03 10:52:44;;;;;;;2.35;1.10;;;;;;;;;;5979868;29;20248;-70
2023/07/03 10:55:53;;;;;;;3.95;1.40;;;;;;;;;;6002667;29;20268;-69
2023/07/03 10:59:06;;;;;;;1.40;1.20;;;;;;;;;;6002232;29;20243;-70
2023/07/03 11:02:19;;;;;;;2.97;1.30;;;;;;;;;;6002685;29;20256;-70
2023/07/03 11:05:27;;;;;;;1.95;1.30;;;;;;;;;;6002086;29;20252;-70
2023/07/03 11:08:36;;;;;;;1.83;1.48;;;;;;;;;;5984708;29;20477;-70
2023/07/03 11:11:47;;;;;;;1.20;1.20;;;;;;;;;;5979294;29;20245;-70
2023/07/03 11:15:03;;;;;;;1.23;1.13;;;;;;;;;;5979621;29;20267;-69
2023/07/03 11:18:27;;;;;;;5.07;1.00;;;;;;;;;;5963507;29;20311;-70
2023/07/03 11:21:42;;;;;;;2.80;1.35;;;;;;;;;;5979307;29;20253;-69
2023/07/03 11:25:01;;;;;;;4.93;1.10;;;;;;;;;;5979242;29;20256;-69
2023/07/03 11:28:15;;;;;;;2.65;1.20;;;;;;;;;;5979839;29;20253;-69
2023/07/03 11:31:22;;;;;;;3.13;1.23;;;;;;;;;;5979348;29;20513;-69
2023/07/03 11:34:27;;;;;;;3.33;1.13;;;;;;;;;;5979133;29;20244;-70
2023/07/03 11:37:43;;;;;;;2.38;0.90;;;;;;;;;;5978891;29;20408;-68
2023/07/03 11:41:04;;;;;;;4.90;1.27;;;;;;;;;;5978739;29;20256;-69
2023/07/03 11:44:18;;;;;;;2.97;1.20;;;;;;;;;;5979987;29;20253;-71
2023/07/03 11:47:27;;;;;;;1.40;1.20;;;;;;;;;;5979053;29;20277;-68
2023/07/03 11:50:33;;;;;;;1.45;1.20;;;;;;;;;;5978901;29;20256;-69
2023/07/03 11:53:40;;;;;;;1.08;0.93;;;;;;;;;;5979032;29;20421;-69
2023/07/03 11:56:50;;;;;;;3.40;1.23;;;;;;;;;;5978840;29;20553;-69
2023/07/03 12:00:14;;;;;;;1.42;1.40;;;;;;;;;;5978522;29;20241;-69
2023/07/03 12:03:48;;;;;;;1.20;1.20;;;;;;;;;;5986275;29;20266;-70
2023/07/03 12:06:53;;;;;;;1.67;1.58;;;;;;;;;;5978343;29;20245;-69
2023/07/03 12:10:41;;;;;;;1.48;1.33;;;;;;;;;;5979182;29;20244;-70
2023/07/03 12:13:53;;;;;;;4.57;1.45;;;;;;;;;;5978872;29;20248;-69
2023/07/03 12:16:58;;;;;;;1.67;1.58;;;;;;;;;;5977933;29;20291;-70
2023/07/03 12:20:09;;;;;;;3.65;1.20;;;;;;;;;;5978516;29;20248;-69
2023/07/03 12:23:14;;;;;;;1.23;1.23;;;;;;;;;;5977948;29;20248;-69
2023/07/03 12:26:18;;;;;;;3.45;1.30;;;;;;;;;;5978190;29;20521;-69
2023/07/03 12:29:23;;;;;;;1.85;1.25;;;;;;;;;;5977390;29;20252;-70
2023/07/03 12:32:30;;;;;;;1.55;1.55;;;;;;;;;;5978264;29;20253;-69
2023/07/03 12:35:37;;;;;;;1.70;1.52;;;;;;;;;;5977462;29;20490;-70
2023/07/03 12:38:42;;;;;;;1.35;1.35;;;;;;;;;;5977312;29;20276;-69
2023/07/03 12:41:47;;;;;;;2.53;1.30;;;;;;;;;;5977762;29;20517;-70
2023/07/03 12:44:52;;;;;;;3.60;1.35;;;;;;;;;;5978071;29;20286;-70
2023/07/03 12:48:03;;;;;;;1.40;1.40;;;;;;;;;;5977453;29;20252;-70
2023/07/03 12:51:09;;;;;;;1.38;1.38;;;;;;;;;;5977668;29;20255;-69
2023/07/03 12:54:14;;;;;;;1.48;1.48;;;;;;;;;;5977786;29;20524;-69
2023/07/03 12:57:20;;;;;;;1.67;1.30;;;;;;;;;;5977185;29;20272;-69
2023/07/03 13:00:30;;;;;;;1.33;1.33;;;;;;;;;;5977080;29;20240;-69
2023/07/03 13:03:39;;;;;;;2.30;1.45;;;;;;;;;;5977570;29;20253;-70
2023/07/03 13:06:46;;;;;;;1.40;1.30;;;;;;;;;;5977024;29;20349;-69
2023/07/03 13:09:50;;;;;;;1.70;1.60;;;;;;;;;;5977678;29;20252;-69
2023/07/03 13:13:06;;;;;;;1.92;1.70;;;;;;;;;;5977114;29;20244;-69
2023/07/03 13:16:19;;;;;;;4.78;1.83;;;;;;;;;;5977201;29;20291;-69
2023/07/03 13:19:27;;;;;;;2.22;1.45;;;;;;;;;;5977355;29;20272;-69
2023/07/03 13:22:34;;;;;;;4.80;2.00;;;;;;;;;;5977319;29;20248;-68
2023/07/03 13:25:40;;;;;;;6.97;1.80;;;;;;;;;;5977516;29;20249;-69
2023/07/03 13:28:56;;;;;;;3.75;1.88;;;;;;;;;;5977095;29;20429;-68
2023/07/03 13:32:14;;;;;;;8.95;1.85;;;;;;;;;;5977498;29;20256;-68
2023/07/03 13:35:27;;;;;;;1.85;1.48;;;;;;;;;;5977514;29;20245;-69
2023/07/03 13:38:33;;;;;;;4.85;1.58;;;;;;;;;;5977789;29;20276;-69
2023/07/03 13:41:39;;;;;;;4.30;1.77;;;;;;;;;;5980586;29;20252;-69
2023/07/03 13:44:43;;;;;;;1.65;1.55;;;;;;;;;;5981750;29;20312;-68
2023/07/03 13:47:48;;;;;;;1.83;1.73;;;;;;;;;;5981508;29;20257;-69
2023/07/03 13:50:54;;;;;;;5.40;1.80;;;;;;;;;;5981157;29;20252;-69
2023/07/03 13:54:00;;;;;;;2.50;1.70;;;;;;;;;;5981482;29;20260;-71
2023/07/03 13:57:15;;;;;;;1.70;1.63;;;;;;;;;;5981115;29;20497;-70
2023/07/03 14:00:19;;;;;;;3.33;1.50;;;;;;;;;;5980988;29;20423;-69
2023/07/03 14:03:24;;;;;;;4.60;2.75;;;;;;;;;;5981053;29;20320;-69
2023/07/03 14:06:29;;;;;;;1.75;1.60;;;;;;;;;;5980929;29;20557;-70
2023/07/03 14:09:35;;;;;;;1.63;1.45;;;;;;;;;;6004604;29;20243;-69
2023/07/03 14:12:39;;;;;;;1.25;1.25;;;;;;;;;;6003739;29;20260;-69
2023/07/03 14:15:44;;;;;;;4.57;1.50;;;;;;;;;;6008635;29;20303;-69
2023/07/03 14:18:49;;;;;;;3.05;1.60;;;;;;;;;;6026128;29;20270;-70
2023/07/03 14:21:53;;;;;;;2.67;1.80;;;;;;;;;;6025583;29;20286;-69
2023/07/03 14:24:59;;;;;;;2.45;1.50;;;;;;;;;;6025960;29;20247;-70
2023/07/03 14:28:05;;;;;;;1.33;1.23;;;;;;;;;;6025754;29;20259;-69
2023/07/03 14:31:10;;;;;;;1.17;1.10;;;;;;;;;;6023810;29;20279;-70
2023/07/03 14:34:14;;;;;;;1.40;1.40;;;;;;;;;;6025702;29;20356;-70
2023/07/03 14:37:19;;;;;;;1.65;1.55;;;;;;;;;;6025684;29;20537;-70
2023/07/03 14:40:25;;;;;;;1.70;1.60;;;;;;;;;;6025749;29;20290;-70
2023/07/03 14:43:29;;;;;;;1.58;1.42;;;;;;;;;;6025297;29;20250;-70
2023/07/03 14:46:34;;;;;;;1.63;1.52;;;;;;;;;;6026133;29;20243;-69
2023/07/03 14:49:39;;;;;;;1.67;1.58;;;;;;;;;;6026235;29;20246;-68
2023/07/03 14:52:45;;;;;;;1.95;1.50;;;;;;;;;;6024780;29;20246;-68
2023/07/03 14:55:56;;;;;;;2.50;1.58;;;;;;;;;;6025077;29;20271;-69
2023/07/03 14:59:00;;;;;;;8.25;2.58;;;;;;;;;;6025260;29;20267;-69
2023/07/03 15:02:06;;;;;;;6.65;2.28;;;;;;;;;;6025224;29;20322;-69
2023/07/03 15:05:10;;;;;;;2.88;1.70;;;;;;;;;;6025492;29;20252;-70
2023/07/03 15:08:15;;;;;;;4.22;1.95;;;;;;;;;;6009546;29;20325;-68
2023/07/03 15:11:21;;;;;;;1.63;1.27;;;;;;;;;;6002515;29;20432;-69
2023/07/03 15:14:26;;;;;;;1.38;1.33;;;;;;;;;;6002786;29;20275;-69
2023/07/03 15:17:30;;;;;;;3.95;1.65;;;;;;;;;;6003079;29;20299;-71
2023/07/03 15:20:38;;;;;;;1.67;1.65;;;;;;;;;;6002587;29;20456;-69
2023/07/03 15:23:43;;;;;;;3.10;1.60;;;;;;;;;;6002711;29;20252;-69
2023/07/03 15:26:50;;;;;;;3.50;1.92;;;;;;;;;;6001908;29;20247;-68
2023/07/03 15:29:54;;;;;;;4.40;2.00;;;;;;;;;;6002306;29;20248;-70
2023/07/03 15:32:59;;;;;;;2.03;1.92;;;;;;;;;;6002261;29;20252;-69
2023/07/03 15:36:04;;;;;;;5.60;2.10;;;;;;;;;;6002245;29;20251;-68
2023/07/03 15:39:08;;;;;;;3.30;1.92;;;;;;;;;;5994883;29;20271;-70
2023/07/03 15:42:14;;;;;;;2.03;1.80;;;;;;;;;;6002009;29;20248;-69
2023/07/03 15:45:21;;;;;;;2.90;2.10;;;;;;;;;;6001624;29;20248;-69
2023/07/03 15:48:27;;;;;;;2.28;2.08;;;;;;;;;;5985802;29;20299;-70
2023/07/03 15:51:31;;;;;;;8.52;2.00;;;;;;;;;;6002064;29;20323;-71
2023/07/03 15:54:36;;;;;;;2.60;2.40;;;;;;;;;;6001700;29;20253;-70
2023/07/03 15:57:44;;;;;;;5.57;2.20;;;;;;;;;;6001666;29;20342;-69
2023/07/03 16:00:56;;;;;;;4.68;2.58;;;;;;;;;;6001723;29;20271;-70
2023/07/03 16:04:02;;;;;;;3.10;2.17;;;;;;;;;;6001029;29;20413;-70
2023/07/03 16:07:06;;;;;;;5.65;2.33;;;;;;;;;;6008298;29;20247;-70
2023/07/03 16:10:11;;;;;;;6.78;2.25;;;;;;;;;;6022277;29;20298;-69
2023/07/03 16:13:17;;;;;;;6.85;2.95;;;;;;;;;;6024079;29;20247;-69
2023/07/03 16:16:23;;;;;;;8.10;3.13;;;;;;;;;;6023948;29;20295;-69
2023/07/03 16:19:28;;;;;;;1.90;1.60;;;;;;;;;;6023793;29;20270;-70
2023/07/03 16:22:33;;;;;;;5.10;1.90;;;;;;;;;;6024195;29;20472;-71
2023/07/03 16:25:38;;;;;;;3.83;2.72;;;;;;;;;;6024483;29;20251;-69
2023/07/03 16:28:44;;;;;;;4.18;1.77;;;;;;;;;;6023992;29;20266;-68
2023/07/03 16:31:48;;;;;;;1.88;1.77;;;;;;;;;;6023807;29;20244;-70
2023/07/03 16:34:53;;;;;;;2.35;1.42;;;;;;;;;;6023739;29;20263;-68
2023/07/03 16:38:01;;;;;;;1.70;1.60;;;;;;;;;;6023839;29;20287;-71
2023/07/03 16:41:09;;;;;;;1.50;1.40;;;;;;;;;;6023854;29;20270;-70
2023/07/03 16:44:15;;;;;;;1.40;1.40;;;;;;;;;;6022139;29;20298;-69
2023/07/03 16:47:20;;;;;;;2.90;1.83;;;;;;;;;;6023761;29;20250;-70
2023/07/03 16:50:25;;;;;;;1.50;1.27;;;;;;;;;;6007278;29;20357;-69
2023/07/03 16:53:32;;;;;;;2.97;1.60;;;;;;;;;;6023753;29;20314;-70
2023/07/03 16:56:37;;;;;;;1.60;1.30;;;;;;;;;;6023587;29;20247;-70
2023/07/03 16:59:43;;;;;;;2.33;1.38;;;;;;;;;;6023711;29;20347;-69
2023/07/03 17:02:47;;;;;;;1.20;1.20;;;;;;;;;;6023194;29;20523;-69
2023/07/03 17:05:52;;;;;;;1.48;1.40;;;;;;;;;;6023583;29;20243;-70
2023/07/03 17:08:57;;;;;;;2.95;1.70;;;;;;;;;;6002580;29;20351;-69
2023/07/03 17:12:01;;;;;;;1.77;1.67;;;;;;;;;;6000926;29;20372;-69
2023/07/03 17:15:09;;;;;;;1.73;1.63;;;;;;;;;;5992828;29;20532;-69
2023/07/03 17:18:14;;;;;;;1.92;1.83;;;;;;;;;;6000592;29;20251;-71
2023/07/03 17:21:19;;;;;;;2.42;1.80;;;;;;;;;;6000373;29;20275;-69
2023/07/03 17:24:23;;;;;;;2.63;1.73;;;;;;;;;;6000439;29;20261;-69
2023/07/03 17:27:28;;;;;;;1.90;1.80;;;;;;;;;;6001130;29;20248;-69
2023/07/03 17:30:33;;;;;;;2.10;1.90;;;;;;;;;;6000743;29;20264;-70
2023/07/03 17:33:38;;;;;;;1.88;1.70;;;;;;;;;;6001130;29;20247;-69
2023/07/03 17:36:43;;;;;;;3.10;2.03;;;;;;;;;;6001444;29;20247;-70
2023/07/03 17:39:47;;;;;;;1.88;1.77;;;;;;;;;;6001122;29;20272;-71
2023/07/03 17:42:52;;;;;;;2.30;2.20;;;;;;;;;;6001523;29;20387;-71
2023/07/03 17:45:58;;;;;;;5.55;1.98;;;;;;;;;;6001576;29;20247;-70
2023/07/03 17:49:03;;;;;;;5.80;2.25;;;;;;;;;;6000701;29;20430;-70
2023/07/03 17:52:08;;;;;;;4.00;1.92;;;;;;;;;;6001134;29;20270;-70
2023/07/03 17:55:12;;;;;;;2.20;2.00;;;;;;;;;;6000937;29;20248;-71
2023/07/03 17:58:17;;;;;;;1.83;1.73;;;;;;;;;;6001022;29;20243;-70
2023/07/03 18:01:23;;;;;;;3.42;2.03;;;;;;;;;;6000769;29;20275;-71
2023/07/03 18:04:28;;;;;;;5.43;2.38;;;;;;;;;;6000173;29;20481;-71
2023/07/03 18:07:33;;;;;;;2.30;2.20;;;;;;;;;;5996826;29;20264;-70
2023/07/03 18:10:37;;;;;;;4.90;2.45;;;;;;;;;;6022851;29;20251;-71
2023/07/03 18:13:42;;;;;;;2.83;2.55;;;;;;;;;;6022769;29;20243;-71
2023/07/03 18:16:48;;;;;;;2.38;2.22;;;;;;;;;;6022427;29;20292;-70
2023/07/03 18:19:52;;;;;;;2.45;2.25;;;;;;;;;;6022552;29;20251;-70
2023/07/03 18:22:57;;;;;;;2.65;2.45;;;;;;;;;;6022900;29;20243;-68
2023/07/03 18:26:02;;;;;;;3.78;2.42;;;;;;;;;;6023914;29;20247;-70
2023/07/03 18:29:06;;;;;;;2.63;2.38;;;;;;;;;;6027260;29;20543;-71
2023/07/03 18:32:12;;;;;;;2.75;2.40;;;;;;;;;;6026610;29;20255;-69
2023/07/03 18:35:17;;;;;;;3.17;2.40;;;;;;;;;;6026994;29;20327;-70
2023/07/03 18:38:23;;;;;;;3.15;2.50;;;;;;;;;;6010229;29;20409;-70